Time;durP1;ratioP1;P1;durP2;ratioP2;P2;SDS_P1;SDS_P2;PMS_P1;PMS_P2;Temp;Humidity;BMP_temperature;BMP_pressure;BME280_temperature;BME280_humidity;BME280_pressure;Samples;Min_cycle;Max_cycle;Signal;HPM_P1;HPM_P2
2021/08/29 00:00:50;;;;;;;9.40;6.87;;;;;;;20.16;88.34;100758.09;1680412;85;20930;-85
2021/08/29 00:03:17;;;;;;;11.28;6.40;;;;;;;20.15;88.05;100756.43;1680518;85;20994;-86
2021/08/29 00:05:43;;;;;;;8.15;6.00;;;;;;;20.14;88.13;100758.72;1680754;85;20882;-84
2021/08/29 00:08:10;;;;;;;13.65;6.83;;;;;;;20.14;87.94;100754.77;1680532;85;21566;-85
2021/08/29 00:10:36;;;;;;;10.55;7.08;;;;;;;20.13;87.68;100745.73;1680625;85;21127;-85
2021/08/29 00:13:04;;;;;;;9.25;6.75;;;;;;;20.12;87.53;100742.26;1680493;85;21013;-85
2021/08/29 00:15:31;;;;;;;8.23;6.53;;;;;;;20.12;87.32;100738.80;1680683;85;20942;-85
2021/08/29 00:17:58;;;;;;;10.35;6.92;;;;;;;20.11;87.23;100728.75;1680514;85;20970;-86
2021/08/29 00:20:26;;;;;;;12.95;6.60;;;;;;;20.09;87.17;100724.14;1680511;85;21017;-85
2021/08/29 00:22:53;;;;;;;10.18;6.22;;;;;;;20.07;87.39;100723.45;1680528;85;21997;-84
2021/08/29 00:25:20;;;;;;;9.78;7.17;;;;;;;20.05;87.12;100716.22;1680503;85;20890;-86
2021/08/29 00:27:48;;;;;;;9.33;6.58;;;;;;;20.03;87.17;100714.25;1680474;85;21575;-84
2021/08/29 00:30:15;;;;;;;9.63;7.05;;;;;;;20.04;87.31;100710.61;1680331;83;21016;-84
2021/08/29 00:32:41;;;;;;;14.73;7.00;;;;;;;20.02;87.28;100704.20;1680614;85;21516;-85
2021/08/29 00:35:10;;;;;;;10.58;6.67;;;;;;;20.02;87.39;100706.00;1680354;85;21069;-84
2021/08/29 00:37:37;;;;;;;11.48;6.78;;;;;;;20.01;87.54;100709.13;1680453;85;21044;-83
2021/08/29 00:40:06;;;;;;;11.20;7.28;;;;;;;20.00;87.47;100704.86;1703248;84;21045;-84
2021/08/29 00:42:34;;;;;;;10.28;6.87;;;;;;;20.01;87.38;100704.34;1680403;85;20957;-86
2021/08/29 00:45:01;;;;;;;10.43;7.00;;;;;;;20.01;87.28;100702.54;1680471;85;21477;-84
2021/08/29 00:47:32;;;;;;;10.82;7.17;;;;;;;20.02;87.15;100703.37;1680561;85;21106;-83
2021/08/29 00:50:00;;;;;;;9.35;6.58;;;;;;;20.01;87.28;100697.27;1658327;85;20991;-84
2021/08/29 00:52:27;;;;;;;10.53;6.50;;;;;;;20.01;87.41;100695.13;1680168;85;20957;-84
2021/08/29 00:54:53;;;;;;;10.90;6.58;;;;;;;20.02;87.27;100696.30;1680657;85;21049;-84
2021/08/29 00:57:21;;;;;;;8.88;6.58;;;;;;;20.03;87.06;100694.00;1680555;85;20952;-84
2021/08/29 00:59:52;;;;;;;12.20;6.45;;;;;;;20.03;86.97;100691.86;1681223;84;21131;-84
2021/08/29 01:02:25;;;;;;;7.85;6.37;;;;;;;20.05;86.83;100689.88;1658005;85;21564;-85
2021/08/29 01:05:20;;;;;;;9.85;6.95;;;;;;;20.04;86.63;100689.53;1681205;85;20859;-84
2021/08/29 01:08:02;;;;;;;12.30;6.12;;;;;;;20.05;86.50;100691.19;1651007;85;20999;-84
2021/08/29 01:10:45;;;;;;;11.43;6.60;;;;;;;20.05;86.16;100685.44;1681373;85;20930;-87
2021/08/29 01:13:20;;;;;;;8.73;6.22;;;;;;;20.06;86.06;100683.63;1674774;84;20992;-85
2021/08/29 01:15:47;;;;;;;11.93;7.28;;;;;;;20.10;85.35;100689.41;1680799;84;20906;-85
2021/08/29 01:18:17;;;;;;;11.60;7.15;;;;;;;20.10;84.99;100688.91;1681197;85;20969;-84
2021/08/29 01:21:01;;;;;;;10.08;6.85;;;;;;;20.11;84.87;100687.91;1658177;85;20926;-84
2021/08/29 01:23:33;;;;;;;8.35;6.60;;;;;;;20.12;84.95;100686.93;1681915;85;21049;-86
2021/08/29 01:26:05;;;;;;;8.45;6.12;;;;;;;20.15;84.82;100685.28;1681945;85;21108;-85
2021/08/29 01:29:01;;;;;;;10.28;6.17;;;;;;;20.16;84.05;100684.80;1680832;82;21001;-84
2021/08/29 01:31:31;;;;;;;11.20;6.62;;;;;;;20.15;83.70;100684.45;1682590;85;20998;-86
2021/08/29 01:34:01;;;;;;;10.58;5.95;;;;;;;20.12;83.53;100676.39;1701188;84;21584;-85
2021/08/29 01:36:30;;;;;;;8.50;6.25;;;;;;;20.11;83.87;100672.09;1658910;85;21041;-85
2021/08/29 01:38:58;;;;;;;11.75;5.55;;;;;;;20.11;83.95;100664.68;1723689;83;21110;-85
2021/08/29 01:41:26;;;;;;;12.00;6.75;;;;;;;20.11;83.95;100666.83;1648414;85;21009;-82
2021/08/29 01:43:53;;;;;;;11.45;5.85;;;;;;;20.11;84.11;100661.56;1723303;83;20887;-84
2021/08/29 01:46:20;;;;;;;7.95;6.35;;;;;;;20.12;83.93;100665.85;1671818;86;20988;-85
2021/08/29 01:48:50;;;;;;;11.03;6.35;;;;;;;20.12;83.91;100650.53;1697649;83;20958;-83
2021/08/29 01:51:17;;;;;;;14.13;6.20;;;;;;;20.11;83.97;100653.66;1671793;86;21119;-84
2021/08/29 01:53:45;;;;;;;11.55;5.87;;;;;;;20.11;83.92;100648.38;1702033;83;21033;-83
2021/08/29 01:56:16;;;;;;;11.73;6.05;;;;;;;20.12;83.90;100646.58;1682612;85;20954;-83
2021/08/29 01:58:50;;;;;;;6.62;5.55;;;;;;;20.11;83.63;100642.29;1701940;83;20911;-84
2021/08/29 02:01:18;;;;;;;9.70;6.83;;;;;;;20.10;83.67;100630.13;1671086;86;21018;-85
2021/08/29 02:03:45;;;;;;;11.33;6.10;;;;;;;20.06;83.81;100629.13;1700502;84;21119;-83
2021/08/29 02:06:31;;;;;;;7.03;5.75;;;;;;;20.04;83.83;100622.35;1670443;85;21027;-83
2021/08/29 02:09:07;;;;;;;11.00;6.12;;;;;;;20.03;83.64;100618.09;1698435;83;26587;-83
2021/08/29 02:11:48;;;;;;;6.85;6.12;;;;;;;20.03;83.42;100610.19;1657545;85;21564;-84
2021/08/29 02:14:21;;;;;;;9.03;6.33;;;;;;;20.00;83.44;100612.66;1701805;84;20907;-86
2021/08/29 02:16:48;;;;;;;11.20;6.47;;;;;;;20.00;83.37;100613.16;1671829;86;21128;-87
2021/08/29 02:19:23;;;;;;;9.20;6.10;;;;;;;19.97;83.48;100610.84;1700255;84;21005;-86
2021/08/29 02:21:53;;;;;;;9.68;6.17;;;;;;;19.95;83.36;100606.22;1682540;85;21018;-85
2021/08/29 02:24:25;;;;;;;12.20;6.55;;;;;;;19.97;83.93;100611.64;1722120;83;21482;-86
2021/08/29 02:26:54;;;;;;;9.60;6.37;;;;;;;19.97;83.94;100609.53;1670564;86;20943;-85
2021/08/29 02:29:21;;;;;;;10.63;6.70;;;;;;;19.97;84.25;100605.58;1700064;84;21109;-86
2021/08/29 02:31:49;;;;;;;8.38;6.55;;;;;;;19.96;84.44;100603.92;1645337;86;21593;-86
2021/08/29 02:34:16;;;;;;;9.38;6.50;;;;;;;19.96;84.65;100604.75;1700141;84;21517;-89
2021/08/29 02:36:43;;;;;;;8.35;5.85;;;;;;;19.95;84.73;100600.95;1645933;86;21011;-85
2021/08/29 02:39:11;;;;;;;9.55;5.90;;;;;;;19.97;84.44;100603.73;1700265;84;20931;-85
2021/08/29 02:41:38;;;;;;;7.87;6.25;;;;;;;20.00;84.19;100606.08;1670544;86;21202;-86
2021/08/29 02:44:05;;;;;;;10.00;6.30;;;;;;;19.99;84.10;100597.01;1700032;84;21039;-87
2021/08/29 02:46:33;;;;;;;8.53;6.00;;;;;;;19.97;84.02;100602.42;1670497;86;21055;-85
2021/08/29 02:49:00;;;;;;;10.93;6.05;;;;;;;19.95;83.91;100602.27;1700186;84;20975;-86
2021/08/29 02:51:27;;;;;;;7.95;5.62;;;;;;;19.93;84.06;100601.12;1656867;85;21580;-86
2021/08/29 02:53:55;;;;;;;6.62;5.42;;;;;;;19.92;84.43;100602.10;1700258;84;21139;-86
2021/08/29 02:56:21;;;;;;;7.60;5.72;;;;;;;19.91;84.32;100594.38;1670845;86;21003;-88
2021/08/29 02:58:50;;;;;;;10.82;5.95;;;;;;;19.91;84.78;100595.70;1700327;84;20987;-85
2021/08/29 03:01:18;;;;;;;10.98;5.85;;;;;;;19.90;84.42;100595.35;1682078;85;21144;-86
2021/08/29 03:04:01;;;;;;;9.48;6.55;;;;;;;19.91;84.32;100599.13;1700333;84;20966;-87
2021/08/29 03:06:29;;;;;;;9.88;6.22;;;;;;;19.88;84.73;100591.55;1670520;86;21069;-88
2021/08/29 03:08:59;;;;;;;7.90;6.25;;;;;;;19.87;84.57;100601.78;1703610;80;21400;-92
2021/08/29 03:11:54;;;;;;;7.65;5.97;;;;;;;19.88;84.09;100617.89;1755341;81;20972;-95
2021/08/29 03:14:23;;;;;;;10.05;6.28;;;;;;;19.87;83.74;100625.48;1750943;81;20993;-79
2021/08/29 03:16:50;;;;;;;11.28;6.33;;;;;;;19.81;83.04;100637.98;1755129;81;20929;-88
2021/08/29 03:19:28;;;;;;;11.33;6.85;;;;;;;19.67;82.52;100635.12;1739485;81;21093;-85
2021/08/29 03:22:14;;;;;;;11.55;6.47;;;;;;;19.49;83.04;100649.72;1754619;81;21586;-92
2021/08/29 03:24:48;;;;;;;7.53;6.37;;;;;;;19.34;83.52;100645.98;1706166;84;21405;-93
2021/08/29 03:27:16;;;;;;;10.28;6.90;;;;;;;19.26;83.90;100642.02;1755619;81;20886;-84
2021/08/29 03:29:45;;;;;;;10.82;6.47;;;;;;;19.20;84.18;100647.42;1755461;81;21466;-91
2021/08/29 03:32:12;;;;;;;16.97;7.40;;;;;;;19.12;84.53;100649.16;1755446;81;21135;-86
2021/08/29 03:34:40;;;;;;;8.03;6.53;;;;;;;19.08;84.78;100643.39;1755587;81;20984;-82
2021/08/29 03:37:07;;;;;;;8.58;6.00;;;;;;;19.06;84.98;100644.53;1755678;81;21495;-84
2021/08/29 03:39:36;;;;;;;10.75;6.90;;;;;;;19.07;85.13;100647.02;1754343;81;20964;-90
2021/08/29 03:42:09;;;;;;;9.80;6.95;;;;;;;19.13;85.11;100650.34;1755242;81;21119;-91
2021/08/29 03:44:36;;;;;;;9.50;6.40;;;;;;;19.17;85.00;100645.11;1755444;81;21136;-83
2021/08/29 03:47:03;;;;;;;8.55;6.58;;;;;;;19.20;84.96;100648.73;1755283;81;21570;-80
2021/08/29 03:49:35;;;;;;;10.78;5.90;;;;;;;19.24;84.87;100650.05;1754436;81;20960;-84
2021/08/29 03:52:02;;;;;;;8.88;6.70;;;;;;;19.28;84.75;100645.30;1755144;81;20964;-85
2021/08/29 03:54:33;;;;;;;10.93;6.45;;;;;;;19.33;84.62;100650.94;1732389;82;20987;-83
2021/08/29 03:57:00;;;;;;;8.63;6.37;;;;;;;19.38;84.30;100647.33;1736876;82;21111;-83
2021/08/29 03:59:29;;;;;;;8.83;6.30;;;;;;;19.42;84.21;100644.27;1755194;81;21535;-86
2021/08/29 04:01:58;;;;;;;12.25;6.20;;;;;;;19.50;84.09;100657.92;1755167;81;20893;-88
2021/08/29 04:04:27;;;;;;;11.12;6.45;;;;;;;19.55;84.13;100649.08;1755201;81;21655;-85
2021/08/29 04:06:55;;;;;;;11.12;5.70;;;;;;;19.60;84.06;100638.89;1755065;81;21008;-82
2021/08/29 04:09:23;;;;;;;13.83;5.95;;;;;;;19.67;84.06;100644.34;1755215;81;21145;-83
2021/08/29 04:11:50;;;;;;;9.78;6.05;;;;;;;19.71;84.09;100645.67;1755043;81;21028;-87
2021/08/29 04:14:18;;;;;;;12.63;5.97;;;;;;;19.74;84.09;100640.09;1754936;81;21012;-89
2021/08/29 04:16:46;;;;;;;9.35;6.47;;;;;;;19.78;84.16;100631.72;1755282;81;20976;-85
2021/08/29 04:19:14;;;;;;;9.48;5.90;;;;;;;19.80;84.17;100623.64;1751896;81;20999;-86
2021/08/29 04:21:41;;;;;;;7.87;6.12;;;;;;;19.83;84.10;100618.88;1758859;81;21139;-86
2021/08/29 04:24:10;;;;;;;8.83;5.40;;;;;;;19.88;84.02;100627.59;1733802;81;20858;-85
2021/08/29 04:26:43;;;;;;;7.37;5.53;;;;;;;19.92;84.09;100621.86;1754475;81;21012;-86
2021/08/29 04:29:11;;;;;;;10.58;6.62;;;;;;;19.98;84.09;100612.47;1755066;81;21036;-86
2021/08/29 04:31:37;;;;;;;8.88;5.90;;;;;;;20.02;83.80;100602.77;1755211;81;21523;-87
2021/08/29 04:34:07;;;;;;;10.23;5.65;;;;;;;20.08;83.76;100602.61;1754750;81;21788;-84
2021/08/29 04:36:39;;;;;;;9.08;6.42;;;;;;;20.15;83.56;100596.19;1754958;81;20996;-86
2021/08/29 04:39:13;;;;;;;8.93;6.05;;;;;;;20.23;83.30;100596.20;1736690;82;21564;-87
2021/08/29 04:41:41;;;;;;;8.18;5.60;;;;;;;20.31;83.22;100589.15;1767730;81;20932;-82
2021/08/29 04:44:10;;;;;;;8.38;5.75;;;;;;;20.39;83.15;100589.13;1767417;81;20983;-85
2021/08/29 04:46:38;;;;;;;10.63;6.00;;;;;;;20.46;82.92;100590.12;1767331;81;21080;-89
2021/08/29 04:49:05;;;;;;;9.15;5.97;;;;;;;20.51;83.05;100589.14;1767265;81;20980;-85
2021/08/29 04:51:33;;;;;;;7.87;6.05;;;;;;;20.57;83.46;100585.83;1767439;81;21555;-87
2021/08/29 04:54:00;;;;;;;9.98;5.95;;;;;;;20.62;83.71;100578.72;1743943;81;20949;-84
2021/08/29 04:56:27;;;;;;;10.88;6.05;;;;;;;20.66;83.93;100572.13;1767289;81;21161;-85
2021/08/29 04:58:54;;;;;;;7.20;6.12;;;;;;;20.69;84.27;100566.52;1767382;81;21152;-87
2021/08/29 05:01:21;;;;;;;9.60;5.40;;;;;;;20.72;84.08;100562.22;1767517;81;21292;-83
2021/08/29 05:03:48;;;;;;;8.65;6.25;;;;;;;20.72;83.91;100559.59;1767600;81;21455;-85
2021/08/29 05:06:15;;;;;;;11.15;5.72;;;;;;;20.74;83.89;100559.44;1767375;81;20996;-87
2021/08/29 05:08:42;;;;;;;8.55;6.15;;;;;;;20.75;83.86;100555.78;1767619;81;21019;-85
2021/08/29 05:11:09;;;;;;;10.18;5.62;;;;;;;20.82;83.56;100556.27;1767411;81;21192;-82
2021/08/29 05:13:37;;;;;;;8.73;5.78;;;;;;;20.89;83.59;100555.09;1767638;81;21421;-87
2021/08/29 05:16:05;;;;;;;8.05;5.62;;;;;;;20.92;83.17;100556.07;1767699;81;21542;-88
2021/08/29 05:18:34;;;;;;;9.50;5.75;;;;;;;20.92;83.10;100554.26;1767648;81;21920;-81
2021/08/29 05:21:07;;;;;;;9.78;5.80;;;;;;;20.95;82.87;100555.23;1762543;81;20956;-87
2021/08/29 05:23:52;;;;;;;11.33;5.42;;;;;;;21.00;82.54;100549.43;1767548;81;21111;-88
2021/08/29 05:26:28;;;;;;;6.25;5.47;;;;;;;21.05;82.31;100548.44;1766323;81;21054;-88
2021/08/29 05:28:55;;;;;;;6.83;5.37;;;;;;;21.10;81.98;100545.63;1743821;81;21008;-84
2021/08/29 05:31:23;;;;;;;6.92;5.53;;;;;;;21.16;80.86;100541.48;1767607;81;21020;-87
2021/08/29 05:33:50;;;;;;;16.65;7.80;;;;;;;21.21;80.59;100541.80;1767939;81;21126;-86
2021/08/29 05:36:17;;;;;;;6.95;5.47;;;;;;;21.27;80.40;100531.87;1743723;81;21097;-89
2021/08/29 05:38:44;;;;;;;9.28;5.45;;;;;;;21.32;80.59;100532.66;1743726;81;21644;-83
2021/08/29 05:41:15;;;;;;;7.85;5.67;;;;;;;21.39;80.85;100534.93;1766749;79;20987;-87
2021/08/29 05:43:46;;;;;;;9.80;6.08;;;;;;;21.44;81.05;100533.41;1767732;81;21059;-88
2021/08/29 05:46:15;;;;;;;7.60;5.97;;;;;;;21.52;80.96;100533.86;1760010;81;21007;-81
2021/08/29 05:48:42;;;;;;;12.73;5.90;;;;;;;21.57;80.28;100532.33;1767643;81;21168;-84
2021/08/29 05:51:08;;;;;;;6.30;5.55;;;;;;;21.65;80.38;100535.43;1767304;81;21023;-89
2021/08/29 05:53:35;;;;;;;12.88;6.15;;;;;;;21.79;80.64;100533.86;1767861;81;20964;-89
2021/08/29 05:56:02;;;;;;;11.25;6.08;;;;;;;21.92;79.97;100526.19;1767519;81;21653;-88
2021/08/29 05:58:31;;;;;;;7.10;6.25;;;;;;;22.04;79.49;100532.69;1744078;81;21003;-89
2021/08/29 06:01:00;;;;;;;8.83;6.47;;;;;;;22.15;79.18;100530.43;1767935;81;21438;-90
2021/08/29 06:03:27;;;;;;;12.65;5.83;;;;;;;22.26;79.26;100528.36;1767658;81;21030;-85
2021/08/29 06:05:54;;;;;;;11.83;5.97;;;;;;;22.34;78.97;100530.91;1767686;81;20901;-85
2021/08/29 06:08:21;;;;;;;9.80;6.00;;;;;;;22.44;79.14;100536.27;1743695;81;21590;-86
2021/08/29 06:10:49;;;;;;;8.68;6.42;;;;;;;22.54;78.68;100538.16;1761295;79;21001;-84
2021/08/29 06:13:18;;;;;;;7.90;6.17;;;;;;;22.62;78.44;100534.61;1755688;81;21912;-90
2021/08/29 06:15:44;;;;;;;10.25;6.72;;;;;;;22.66;78.28;100530.61;1755885;81;21504;-88
2021/08/29 06:18:12;;;;;;;10.82;7.00;;;;;;;22.72;78.37;100527.77;1755816;81;21512;-83
2021/08/29 06:20:44;;;;;;;8.80;6.25;;;;;;;22.79;78.62;100522.03;1755937;81;20989;-92
2021/08/29 06:23:11;;;;;;;8.03;6.70;;;;;;;22.88;78.28;100519.11;1755748;81;25482;-85
2021/08/29 06:25:56;;;;;;;11.35;6.72;;;;;;;22.98;78.13;100517.00;1755633;81;22033;-87
2021/08/29 06:28:31;;;;;;;10.25;7.25;;;;;;;23.07;78.59;100517.20;1755798;81;20982;-86
2021/08/29 06:31:16;;;;;;;8.50;6.55;;;;;;;23.17;78.38;100517.73;1755564;81;20935;-87
2021/08/29 06:34:01;;;;;;;13.70;7.50;;;;;;;23.23;78.07;100511.41;1755973;81;20887;-88
2021/08/29 06:36:31;;;;;;;12.55;6.65;;;;;;;23.25;77.39;100506.23;1756080;81;20970;-89
2021/08/29 06:38:58;;;;;;;10.95;6.97;;;;;;;23.27;77.08;100498.91;1756147;81;21446;-89
2021/08/29 06:41:26;;;;;;;10.23;6.60;;;;;;;23.34;76.93;100504.28;1755547;81;20975;-90
2021/08/29 06:43:54;;;;;;;8.53;6.75;;;;;;;23.43;77.24;100501.86;1756040;81;20923;-84
2021/08/29 06:46:35;;;;;;;9.40;7.00;;;;;;;23.50;77.48;100502.75;1736750;81;21484;-89
2021/08/29 06:49:19;;;;;;;10.32;6.60;;;;;;;23.55;77.36;100501.17;1755681;81;20913;-84
2021/08/29 06:52:04;;;;;;;12.82;6.50;;;;;;;23.55;77.36;100506.47;1755565;81;21093;-86
2021/08/29 06:54:49;;;;;;;8.83;6.50;;;;;;;23.67;77.57;100512.10;1755648;81;20906;-84
2021/08/29 06:57:38;;;;;;;10.65;6.78;;;;;;;23.81;77.33;100510.38;1703140;84;21019;-92
2021/08/29 07:00:08;;;;;;;11.90;7.83;;;;;;;23.94;77.09;100510.48;1703542;83;21075;-86
2021/08/29 07:02:34;;;;;;;10.05;7.53;;;;;;;24.03;76.82;100504.86;1723685;81;21042;-83
2021/08/29 07:05:01;;;;;;;10.65;7.60;;;;;;;24.12;76.93;100500.29;1755666;81;21194;-83
2021/08/29 07:07:27;;;;;;;11.40;7.22;;;;;;;24.20;77.00;100500.12;1736294;81;21584;-81
2021/08/29 07:10:09;;;;;;;9.50;6.83;;;;;;;24.32;77.14;100503.05;1756209;81;20979;-83
2021/08/29 07:12:37;;;;;;;11.73;7.33;;;;;;;24.48;77.16;100497.45;1764090;81;20968;-83
2021/08/29 07:15:07;;;;;;;12.03;8.43;;;;;;;24.65;76.72;100494.80;1766209;81;21051;-83
2021/08/29 07:17:35;;;;;;;10.75;7.60;;;;;;;24.80;77.33;100491.50;1767410;81;21134;-83
2021/08/29 07:20:01;;;;;;;12.33;8.18;;;;;;;24.90;78.39;100487.18;1767413;81;20988;-83
2021/08/29 07:22:46;;;;;;;15.93;9.03;;;;;;;25.02;78.95;100490.39;1767522;81;20881;-84
2021/08/29 07:25:33;;;;;;;13.05;7.80;;;;;;;25.18;78.31;100487.38;1767275;81;42116;-86
2021/08/29 07:28:20;;;;;;;12.15;8.60;;;;;;;25.36;78.20;100486.02;1767491;81;21522;-92
2021/08/29 07:31:05;;;;;;;16.32;8.33;;;;;;;25.50;78.38;100483.20;1767404;81;21109;-86
2021/08/29 07:33:32;;;;;;;14.13;8.05;;;;;;;25.60;77.59;100477.48;1767449;81;20976;-84
2021/08/29 07:36:00;;;;;;;13.95;7.60;;;;;;;25.61;77.55;100468.50;1766652;81;20889;-81
2021/08/29 07:38:29;;;;;;;18.90;8.85;;;;;;;25.63;77.80;100464.61;1764066;81;20889;-82
2021/08/29 07:40:55;;;;;;;12.07;8.23;;;;;;;25.65;78.12;100457.78;1767644;81;20936;-84
2021/08/29 07:43:22;;;;;;;9.63;8.00;;;;;;;25.66;78.25;100454.08;1767544;81;21737;-82
2021/08/29 07:45:49;;;;;;;11.12;8.45;;;;;;;25.68;78.30;100456.04;1767428;81;21490;-86
2021/08/29 07:48:16;;;;;;;11.97;8.40;;;;;;;25.72;78.42;100452.75;1767383;81;20956;-83
2021/08/29 07:50:42;;;;;;;12.68;8.43;;;;;;;25.83;78.70;100455.31;1767605;81;21043;-84
2021/08/29 07:53:09;;;;;;;13.18;8.48;;;;;;;25.94;78.89;100449.90;1767341;81;21008;-83
2021/08/29 07:55:53;;;;;;;12.10;8.40;;;;;;;26.04;78.92;100451.09;1768032;81;21154;-87
2021/08/29 07:58:24;;;;;;;12.35;7.78;;;;;;;26.14;79.65;100452.83;1767476;81;21000;-83
2021/08/29 08:00:53;;;;;;;10.58;8.23;;;;;;;26.23;80.22;100450.28;1766285;81;20987;-82
2021/08/29 08:03:36;;;;;;;10.65;9.15;;;;;;;26.33;80.02;100454.34;1767761;81;21496;-82
2021/08/29 08:06:20;;;;;;;11.33;8.70;;;;;;;26.43;79.48;100450.23;1767802;81;21435;-90
2021/08/29 08:08:47;;;;;;;9.98;8.00;;;;;;;26.54;79.62;100449.60;1767536;81;21139;-82
2021/08/29 08:11:15;;;;;;;10.75;7.33;;;;;;;26.64;79.20;100441.99;1748257;81;20957;-83
2021/08/29 08:13:43;;;;;;;16.90;7.87;;;;;;;26.74;78.76;100433.02;1743664;82;21012;-85
2021/08/29 08:16:10;;;;;;;10.80;7.75;;;;;;;26.80;78.54;100432.70;1743777;82;20946;-84
2021/08/29 08:18:38;;;;;;;12.47;8.58;;;;;;;26.78;78.72;100439.56;1744129;82;20894;-81
2021/08/29 08:21:05;;;;;;;13.10;8.23;;;;;;;26.76;78.96;100433.64;1743788;82;21150;-83
2021/08/29 08:23:47;;;;;;;11.12;8.05;;;;;;;26.77;78.90;100429.14;1743633;82;20854;-82
2021/08/29 08:26:28;;;;;;;;;;;;;;;26.80;78.72;100425.55;1746138;82;20977;-83
2021/08/29 08:29:13;;;;;;;7.97;7.00;;;;;;;26.86;78.88;100424.41;1743625;82;20126;-80
2021/08/29 08:31:58;;;;;;;11.80;8.00;;;;;;;26.92;78.04;100421.72;1743805;82;20922;-87
2021/08/29 08:34:47;;;;;;;12.13;7.28;;;;;;;26.99;77.77;100419.02;1743916;82;21148;-82
2021/08/29 08:37:20;;;;;;;11.73;8.08;;;;;;;27.05;77.42;100417.65;1738537;82;21489;-87
2021/08/29 08:39:50;;;;;;;9.43;7.35;;;;;;;27.10;77.18;100415.66;1728548;82;21036;-83
2021/08/29 08:42:27;;;;;;;11.85;7.90;;;;;;;27.20;76.12;100414.67;1741823;82;21526;-86
2021/08/29 08:45:08;;;;;;;8.58;7.00;;;;;;;27.32;74.94;100412.94;1691533;82;20984;-82
2021/08/29 08:47:53;;;;;;;9.80;7.72;;;;;;;27.44;73.95;100412.61;1743908;82;21810;-85
2021/08/29 08:50:42;;;;;;;8.13;7.42;;;;;;;27.56;73.45;100407.38;1743318;82;20993;-83
2021/08/29 08:53:27;;;;;;;8.43;7.45;;;;;;;27.64;72.69;100403.91;1743636;82;20890;-83
2021/08/29 08:56:12;;;;;;;10.32;7.17;;;;;;;27.72;71.07;100399.64;1743512;82;21638;-85
2021/08/29 08:59:00;;;;;;;10.45;7.50;;;;;;;27.79;71.21;100404.38;1661583;86;20943;-83
2021/08/29 09:01:45;;;;;;;12.07;7.40;;;;;;;27.89;69.55;100397.75;1662922;86;21170;-85
2021/08/29 09:04:31;;;;;;;10.32;7.17;;;;;;;27.93;68.85;100398.92;1712378;82;20949;-86
2021/08/29 09:06:59;;;;;;;11.65;7.35;;;;;;;27.94;67.48;100394.72;1743638;82;21441;-82
2021/08/29 09:09:30;;;;;;;10.08;7.47;;;;;;;27.96;67.48;100396.63;1743481;82;20996;-81
2021/08/29 09:11:57;;;;;;;11.43;7.60;;;;;;;28.06;66.72;100391.64;1757429;81;21523;-82
2021/08/29 09:14:46;;;;;;;9.85;7.15;;;;;;;28.13;66.31;100381.72;1767348;81;21140;-84
2021/08/29 09:17:28;;;;;;;9.58;7.28;;;;;;;28.25;66.32;100395.12;1766955;81;20956;-82
2021/08/29 09:20:27;;;;;;;8.95;7.25;;;;;;;28.42;65.28;100391.34;1767492;81;20925;-88
2021/08/29 09:22:59;;;;;;;10.28;7.17;;;;;;;28.53;63.83;100387.39;1766152;81;20980;-84
2021/08/29 09:25:44;;;;;;;12.45;7.87;;;;;;;28.64;63.16;100394.66;1767385;81;21036;-83
2021/08/29 09:28:16;;;;;;;17.00;7.53;;;;;;;28.71;62.66;100389.27;1766017;81;21115;-79
2021/08/29 09:30:46;;;;;;;8.53;7.22;;;;;;;28.76;62.56;100388.88;1766576;81;20987;-82
2021/08/29 09:33:15;;;;;;;9.70;6.90;;;;;;;28.93;62.12;100384.23;1767361;81;21022;-83
2021/08/29 09:35:42;;;;;;;10.32;7.05;;;;;;;29.06;60.85;100380.85;1767685;81;21039;-87
2021/08/29 09:38:27;;;;;;;12.88;7.10;;;;;;;29.08;60.19;100378.75;1767658;81;21091;-87
2021/08/29 09:41:01;;;;;;;9.75;7.50;;;;;;;29.07;59.17;100370.98;1718715;81;21166;-81
2021/08/29 09:43:36;;;;;;;10.78;7.42;;;;;;;29.09;59.40;100373.71;1749954;81;21028;-83
2021/08/29 09:46:07;;;;;;;11.73;8.03;;;;;;;29.20;59.47;100370.75;1743600;81;21011;-81
2021/08/29 09:48:56;;;;;;;10.03;7.17;;;;;;;29.34;59.69;100371.70;1767458;81;20972;-84
2021/08/29 09:51:27;;;;;;;9.20;7.08;;;;;;;29.79;57.31;100359.09;1761038;81;21024;-82
2021/08/29 09:53:58;;;;;;;7.53;6.83;;;;;;;30.81;54.91;100360.15;1744163;81;21853;-81
2021/08/29 09:56:29;;;;;;;11.12;6.30;;;;;;;31.99;51.01;100351.86;1759700;81;20986;-81
2021/08/29 09:59:14;;;;;;;6.20;5.42;;;;;;;32.95;48.51;100359.19;1767310;81;21712;-82
2021/08/29 10:01:46;;;;;;;7.25;6.55;;;;;;;34.02;45.42;100352.69;1740497;81;21084;-81
2021/08/29 10:04:20;;;;;;;10.88;6.17;;;;;;;34.61;43.30;100344.33;1741181;81;21039;-82
2021/08/29 10:06:48;;;;;;;7.83;5.92;;;;;;;35.17;42.57;100348.71;1767486;81;21136;-85
2021/08/29 10:09:25;;;;;;;6.87;5.53;;;;;;;35.87;39.53;100340.23;1767498;81;21503;-88
2021/08/29 10:11:54;;;;;;;8.75;5.70;;;;;;;36.41;38.82;100343.02;1767180;81;20988;-79
2021/08/29 10:14:21;;;;;;;11.70;5.22;;;;;;;37.10;37.01;100345.02;1743666;81;21000;-84
2021/08/29 10:16:52;;;;;;;8.10;5.45;;;;;;;37.76;35.42;100343.56;1764155;81;21483;-90
2021/08/29 10:19:21;;;;;;;8.45;5.45;;;;;;;38.57;34.45;100337.96;1760180;81;21142;-85
2021/08/29 10:22:05;;;;;;;8.85;5.20;;;;;;;39.14;32.41;100334.08;1706635;84;21155;-81
2021/08/29 10:24:34;;;;;;;8.68;5.78;;;;;;;39.29;31.88;100337.09;1747657;81;20960;-83
2021/08/29 10:27:06;;;;;;;;;;;;;;;39.39;31.32;100344.52;1746444;81;21534;-88
2021/08/29 10:29:49;;;;;;;8.98;5.30;;;;;;;38.77;31.40;100337.66;1709994;81;20106;-79
2021/08/29 10:32:38;;;;;;;6.85;5.50;;;;;;;37.73;32.09;100338.73;1767725;81;21078;-82
2021/08/29 10:35:24;;;;;;;8.15;5.53;;;;;;;36.74;33.16;100339.58;1705140;84;21009;-82
2021/08/29 10:37:54;;;;;;;7.22;5.53;;;;;;;35.87;34.82;100333.48;1681708;84;21109;-82
2021/08/29 10:40:39;;;;;;;6.28;5.53;;;;;;;35.43;35.66;100331.42;1715410;80;20896;-84
2021/08/29 10:43:08;;;;;;;8.70;6.58;;;;;;;34.88;36.48;100330.88;1765819;81;20921;-83
2021/08/29 10:45:52;;;;;;;8.85;6.00;;;;;;;34.53;37.90;100326.22;1746369;81;21104;-77
2021/08/29 10:48:21;;;;;;;11.30;6.40;;;;;;;34.21;38.39;100326.94;1730551;81;20849;-80
2021/08/29 10:51:01;;;;;;;9.55;6.15;;;;;;;34.01;39.07;100326.33;1766418;81;20929;-79
2021/08/29 10:53:34;;;;;;;8.20;6.42;;;;;;;33.68;41.16;100329.91;1743784;81;20992;-80
2021/08/29 10:56:21;;;;;;;10.23;6.15;;;;;;;33.27;41.80;100324.78;1767463;81;20980;-81
2021/08/29 10:59:20;;;;;;;8.88;6.30;;;;;;;32.87;42.51;100320.66;1767567;81;21162;-79
2021/08/29 11:01:52;;;;;;;11.97;6.58;;;;;;;32.66;43.01;100323.41;1767333;81;20999;-80
2021/08/29 11:04:37;;;;;;;6.62;5.90;;;;;;;32.65;42.73;100321.78;1763300;81;21044;-84
2021/08/29 11:07:10;;;;;;;11.78;6.22;;;;;;;32.58;42.75;100313.92;1767490;81;21448;-84
2021/08/29 11:09:44;;;;;;;9.98;6.87;;;;;;;32.61;43.06;100313.45;1767821;81;21483;-87
2021/08/29 11:12:22;;;;;;;8.88;6.45;;;;;;;32.67;42.41;100311.61;1743865;81;20991;-80
2021/08/29 11:14:52;;;;;;;8.55;6.15;;;;;;;32.58;42.24;100305.86;1766458;79;20952;-81
2021/08/29 11:17:28;;;;;;;9.90;6.90;;;;;;;32.45;42.53;100304.36;1767502;81;21027;-82
2021/08/29 11:20:07;;;;;;;11.18;6.53;;;;;;;32.41;43.03;100302.45;1766213;81;21042;-82
2021/08/29 11:22:53;;;;;;;10.23;6.20;;;;;;;32.43;43.31;100301.13;1767468;81;21561;-81
2021/08/29 11:25:34;;;;;;;10.23;7.28;;;;;;;32.43;42.85;100298.97;1767808;81;21082;-84
2021/08/29 11:28:29;;;;;;;11.30;6.80;;;;;;;32.34;46.74;100295.93;1767599;81;20849;-82
2021/08/29 11:31:01;;;;;;;8.30;6.45;;;;;;;32.20;48.16;100291.19;1767616;81;20952;-81
2021/08/29 11:33:34;;;;;;;8.68;6.45;;;;;;;32.09;46.69;100288.94;1766311;81;21087;-80
2021/08/29 11:36:13;;;;;;;16.57;8.23;;;;;;;32.14;48.30;100282.80;1757456;81;21506;-85
2021/08/29 11:38:48;;;;;;;10.80;6.75;;;;;;;32.19;47.50;100283.69;1754112;81;21179;-87
2021/08/29 11:41:16;;;;;;;8.78;7.12;;;;;;;32.19;46.99;100282.34;1743681;81;21064;-84
2021/08/29 11:43:50;;;;;;;11.78;7.60;;;;;;;32.22;47.11;100288.55;1768127;81;21020;-81
2021/08/29 11:46:23;;;;;;;10.55;7.20;;;;;;;32.17;47.59;100283.64;1767101;81;20988;-82